sensor_id;sensor_type;location;lat;lon;timestamp;pressure;altitude;pressure_sealevel;temperature;humidity
48862;BME280;34681;49.188;-0.374;2022-08-18T00:02:07;101131.91;;;22.27;67.46
48862;BME280;34681;49.188;-0.374;2022-08-18T00:04:33;101131.06;;;22.27;67.52
48862;BME280;34681;49.188;-0.374;2022-08-18T00:07:08;101128.91;;;22.22;67.57
48862;BME280;34681;49.188;-0.374;2022-08-18T00:12:02;101128.03;;;22.15;68.35
48862;BME280;34681;49.188;-0.374;2022-08-18T00:14:28;101120.53;;;22.22;68.02
48862;BME280;34681;49.188;-0.374;2022-08-18T00:16:54;101115.38;;;22.26;67.95
48862;BME280;34681;49.188;-0.374;2022-08-18T00:19:20;101125.47;;;22.27;68.10
48862;BME280;34681;49.188;-0.374;2022-08-18T00:21:46;101122.47;;;22.28;67.96
48862;BME280;34681;49.188;-0.374;2022-08-18T00:24:12;101115.59;;;22.31;67.97
48862;BME280;34681;49.188;-0.374;2022-08-18T00:26:37;101114.75;;;22.30;67.96
48862;BME280;34681;49.188;-0.374;2022-08-18T00:29:03;101111.31;;;22.35;68.10
48862;BME280;34681;49.188;-0.374;2022-08-18T00:31:28;101108.09;;;22.38;67.99
48862;BME280;34681;49.188;-0.374;2022-08-18T00:33:53;101108.31;;;22.43;67.84
48862;BME280;34681;49.188;-0.374;2022-08-18T00:36:19;101103.16;;;22.47;67.97
48862;BME280;34681;49.188;-0.374;2022-08-18T00:38:44;101100.78;;;22.50;67.46
48862;BME280;34681;49.188;-0.374;2022-08-18T00:41:10;101097.34;;;22.55;67.58
48862;BME280;34681;49.188;-0.374;2022-08-18T00:43:45;101098.22;;;22.55;67.71
48862;BME280;34681;49.188;-0.374;2022-08-18T00:46:23;101096.91;;;22.58;67.69
48862;BME280;34681;49.188;-0.374;2022-08-18T00:48:49;101093.50;;;22.56;67.49
48862;BME280;34681;49.188;-0.374;2022-08-18T00:51:40;101089.84;;;22.55;67.20
48862;BME280;34681;49.188;-0.374;2022-08-18T00:56:42;101102.28;;;22.59;67.27
48862;BME280;34681;49.188;-0.374;2022-08-18T00:59:21;101099.50;;;22.59;67.41
48862;BME280;34681;49.188;-0.374;2022-08-18T01:01:49;101092.00;;;22.60;67.25
48862;BME280;34681;49.188;-0.374;2022-08-18T01:04:22;101089.22;;;22.60;67.29
48862;BME280;34681;49.188;-0.374;2022-08-18T01:06:53;101086.41;;;22.60;67.29
48862;BME280;34681;49.188;-0.374;2022-08-18T01:09:19;101085.78;;;22.51;67.69
48862;BME280;34681;49.188;-0.374;2022-08-18T01:11:44;101083.41;;;22.55;67.56
48862;BME280;34681;49.188;-0.374;2022-08-18T01:14:12;101092.63;;;22.55;67.63
48862;BME280;34681;49.188;-0.374;2022-08-18T01:16:41;101101.44;;;22.52;67.75
48862;BME280;34681;49.188;-0.374;2022-08-18T01:19:26;101102.28;;;22.53;67.98
48862;BME280;34681;49.188;-0.374;2022-08-18T01:24:49;101114.31;;;22.40;68.38
48862;BME280;34681;49.188;-0.374;2022-08-18T01:27:33;101110.25;;;22.42;68.39
48862;BME280;34681;49.188;-0.374;2022-08-18T01:30:05;101120.97;;;22.46;68.04
48862;BME280;34681;49.188;-0.374;2022-08-18T01:32:35;101122.66;;;22.53;68.33
48862;BME280;34681;49.188;-0.374;2022-08-18T01:35:01;101122.88;;;22.52;68.38
48862;BME280;34681;49.188;-0.374;2022-08-18T01:37:27;101125.22;;;22.55;68.41
48862;BME280;34681;49.188;-0.374;2022-08-18T01:39:53;101132.75;;;22.54;68.17
48862;BME280;34681;49.188;-0.374;2022-08-18T01:42:19;101137.03;;;22.57;68.13
48862;BME280;34681;49.188;-0.374;2022-08-18T01:44:46;101152.69;;;22.45;68.46
48862;BME280;34681;49.188;-0.374;2022-08-18T01:47:13;101149.91;;;22.51;68.23
48862;BME280;34681;49.188;-0.374;2022-08-18T01:49:40;101153.97;;;22.42;68.76
48862;BME280;34681;49.188;-0.374;2022-08-18T01:52:08;101147.97;;;22.45;68.65
48862;BME280;34681;49.188;-0.374;2022-08-18T01:54:34;101147.31;;;22.50;68.82
48862;BME280;34681;49.188;-0.374;2022-08-18T01:56:59;101141.56;;;22.38;69.14
48862;BME280;34681;49.188;-0.374;2022-08-18T01:59:24;101140.06;;;22.35;68.75
48862;BME280;34681;49.188;-0.374;2022-08-18T02:01:50;101144.34;;;22.38;69.13
48862;BME280;34681;49.188;-0.374;2022-08-18T02:04:24;101155.50;;;22.45;68.83
48862;BME280;34681;49.188;-0.374;2022-08-18T02:06:51;101150.78;;;22.45;68.94
48862;BME280;34681;49.188;-0.374;2022-08-18T02:09:17;101139.19;;;22.55;68.46
48862;BME280;34681;49.188;-0.374;2022-08-18T02:11:42;101131.22;;;22.58;68.31
48862;BME280;34681;49.188;-0.374;2022-08-18T02:14:08;101135.53;;;22.61;68.47
48862;BME280;34681;49.188;-0.374;2022-08-18T02:16:33;101133.81;;;22.60;68.17
48862;BME280;34681;49.188;-0.374;2022-08-18T02:18:58;101138.72;;;22.58;68.15
48862;BME280;34681;49.188;-0.374;2022-08-18T02:21:24;101145.84;;;22.54;68.01
48862;BME280;34681;49.188;-0.374;2022-08-18T02:23:49;101149.25;;;22.49;68.31
48862;BME280;34681;49.188;-0.374;2022-08-18T02:26:16;101144.53;;;22.50;68.00
48862;BME280;34681;49.188;-0.374;2022-08-18T02:28:42;101130.41;;;22.51;68.27
48862;BME280;34681;49.188;-0.374;2022-08-18T02:31:13;101134.91;;;22.52;67.99
48862;BME280;34681;49.188;-0.374;2022-08-18T02:33:39;101134.03;;;22.52;68.09
48862;BME280;34681;49.188;-0.374;2022-08-18T02:36:06;101147.97;;;22.45;67.98
48862;BME280;34681;49.188;-0.374;2022-08-18T02:38:32;101152.06;;;22.36;68.37
48862;BME280;34681;49.188;-0.374;2022-08-18T02:40:59;101148.41;;;22.35;68.23
48862;BME280;34681;49.188;-0.374;2022-08-18T02:43:26;101150.13;;;22.36;68.24
48862;BME280;34681;49.188;-0.374;2022-08-18T02:45:52;101145.81;;;22.34;68.09
48862;BME280;34681;49.188;-0.374;2022-08-18T02:48:18;101144.78;;;22.28;68.21
48862;BME280;34681;49.188;-0.374;2022-08-18T02:51:06;101149.69;;;22.20;68.45
48862;BME280;34681;49.188;-0.374;2022-08-18T02:53:34;101145.19;;;22.19;68.37
48862;BME280;34681;49.188;-0.374;2022-08-18T02:56:09;101146.47;;;22.23;68.44
48862;BME280;34681;49.188;-0.374;2022-08-18T02:58:49;101146.91;;;22.20;68.36
48862;BME280;34681;49.188;-0.374;2022-08-18T03:01:17;101149.91;;;22.18;68.47
48862;BME280;34681;49.188;-0.374;2022-08-18T03:03:42;101147.75;;;22.20;68.51
48862;BME280;34681;49.188;-0.374;2022-08-18T03:06:07;101142.84;;;22.22;68.28
48862;BME280;34681;49.188;-0.374;2022-08-18T03:08:33;101146.47;;;22.23;68.28
48862;BME280;34681;49.188;-0.374;2022-08-18T03:10:58;101142.19;;;22.20;68.39
48862;BME280;34681;49.188;-0.374;2022-08-18T03:13:24;101149.25;;;22.16;68.19
48862;BME280;34681;49.188;-0.374;2022-08-18T03:15:49;101139.63;;;22.12;68.47
48862;BME280;34681;49.188;-0.374;2022-08-18T03:18:15;101144.34;;;22.11;68.45
48862;BME280;34681;49.188;-0.374;2022-08-18T03:20:41;101137.03;;;22.10;68.44
48862;BME280;34681;49.188;-0.374;2022-08-18T03:23:08;101142.41;;;22.12;68.55
48862;BME280;34681;49.188;-0.374;2022-08-18T03:25:33;101153.72;;;22.04;68.70
48862;BME280;34681;49.188;-0.374;2022-08-18T03:28:00;101148.78;;;22.06;68.58
48862;BME280;34681;49.188;-0.374;2022-08-18T03:30:26;101147.94;;;22.05;68.86
48862;BME280;34681;49.188;-0.374;2022-08-18T03:32:51;101150.50;;;22.07;69.04
48862;BME280;34681;49.188;-0.374;2022-08-18T03:35:16;101150.50;;;22.07;68.95
48862;BME280;34681;49.188;-0.374;2022-08-18T03:37:42;101144.06;;;22.06;69.03
48862;BME280;34681;49.188;-0.374;2022-08-18T03:40:09;101148.78;;;21.99;68.99
48862;BME280;34681;49.188;-0.374;2022-08-18T03:42:35;101145.13;;;21.99;69.11
48862;BME280;34681;49.188;-0.374;2022-08-18T03:45:02;101147.28;;;21.97;68.81
48862;BME280;34681;49.188;-0.374;2022-08-18T03:47:27;101140.41;;;21.93;69.13
48862;BME280;34681;49.188;-0.374;2022-08-18T03:49:52;101143.19;;;21.93;68.99
48862;BME280;34681;49.188;-0.374;2022-08-18T03:52:18;101139.75;;;21.91;69.06
48862;BME280;34681;49.188;-0.374;2022-08-18T03:54:43;101132.91;;;21.86;69.00
48862;BME280;34681;49.188;-0.374;2022-08-18T03:57:10;101134.84;;;21.86;68.96
48862;BME280;34681;49.188;-0.374;2022-08-18T03:59:37;101133.75;;;21.87;69.20
48862;BME280;34681;49.188;-0.374;2022-08-18T04:02:06;101133.75;;;21.87;69.09
48862;BME280;34681;49.188;-0.374;2022-08-18T04:04:32;101126.91;;;21.90;69.57
48862;BME280;34681;49.188;-0.374;2022-08-18T04:07:00;101117.28;;;21.85;69.43
48862;BME280;34681;49.188;-0.374;2022-08-18T04:09:29;101128.19;;;21.87;69.36
48862;BME280;34681;49.188;-0.374;2022-08-18T04:11:56;101130.75;;;21.88;69.22
48862;BME280;34681;49.188;-0.374;2022-08-18T04:14:24;101126.91;;;21.90;69.21
48862;BME280;34681;49.188;-0.374;2022-08-18T04:16:49;101126.25;;;21.87;69.32
48862;BME280;34681;49.188;-0.374;2022-08-18T04:19:16;101125.19;;;21.88;69.50
48862;BME280;34681;49.188;-0.374;2022-08-18T04:21:42;101130.75;;;21.88;69.26
48862;BME280;34681;49.188;-0.374;2022-08-18T04:24:10;101137.81;;;21.91;69.45
48862;BME280;34681;49.188;-0.374;2022-08-18T04:26:46;101137.41;;;21.87;69.43
48862;BME280;34681;49.188;-0.374;2022-08-18T04:29:14;101134.16;;;21.84;69.32
48862;BME280;34681;49.188;-0.374;2022-08-18T04:31:41;101135.03;;;21.84;69.27
48862;BME280;34681;49.188;-0.374;2022-08-18T04:34:07;101136.94;;;21.71;69.37
48862;BME280;34681;49.188;-0.374;2022-08-18T04:36:34;101138.59;;;21.58;69.95
48862;BME280;34681;49.188;-0.374;2022-08-18T04:39:01;101145.25;;;21.57;70.13
48862;BME280;34681;49.188;-0.374;2022-08-18T04:41:27;101155.13;;;21.67;69.60
48862;BME280;34681;49.188;-0.374;2022-08-18T04:43:58;101146.75;;;21.67;69.71
48862;BME280;34681;49.188;-0.374;2022-08-18T04:46:25;101142.50;;;21.64;69.76
48862;BME280;34681;49.188;-0.374;2022-08-18T04:48:51;101148.06;;;21.64;69.81
48862;BME280;34681;49.188;-0.374;2022-08-18T04:51:19;101144.00;;;21.73;69.50
48862;BME280;34681;49.188;-0.374;2022-08-18T04:53:45;101153.88;;;21.69;69.57
48862;BME280;34681;49.188;-0.374;2022-08-18T04:56:25;101143.78;;;21.75;69.54
48862;BME280;34681;49.188;-0.374;2022-08-18T04:58:58;101145.94;;;21.73;69.47
48862;BME280;34681;49.188;-0.374;2022-08-18T05:01:27;101158.78;;;21.74;69.46
48862;BME280;34681;49.188;-0.374;2022-08-18T05:03:55;101153.69;;;21.77;69.37
48862;BME280;34681;49.188;-0.374;2022-08-18T05:06:22;101149.19;;;21.76;69.29
48862;BME280;34681;49.188;-0.374;2022-08-18T05:08:52;101151.06;;;21.76;69.47
48862;BME280;34681;49.188;-0.374;2022-08-18T05:11:19;101159.91;;;21.93;69.35
48862;BME280;34681;49.188;-0.374;2022-08-18T05:13:46;101166.78;;;21.97;68.99
48862;BME280;34681;49.188;-0.374;2022-08-18T05:16:11;101172.78;;;22.00;68.62
48862;BME280;34681;49.188;-0.374;2022-08-18T05:18:36;101158.66;;;22.02;68.61
48862;BME280;34681;49.188;-0.374;2022-08-18T05:21:06;101170.66;;;22.02;68.60
48862;BME280;34681;49.188;-0.374;2022-08-18T05:23:33;101168.78;;;22.09;68.44
48862;BME280;34681;49.188;-0.374;2022-08-18T05:26:01;101169.63;;;22.17;68.09
48862;BME280;34681;49.188;-0.374;2022-08-18T05:28:28;101180.78;;;22.23;68.09
48862;BME280;34681;49.188;-0.374;2022-08-18T05:30:54;101178.44;;;22.27;67.91
48862;BME280;34681;49.188;-0.374;2022-08-18T05:33:20;101178.63;;;22.32;67.82
48862;BME280;34681;49.188;-0.374;2022-08-18T05:35:48;101183.59;;;22.36;67.78
48862;BME280;34681;49.188;-0.374;2022-08-18T05:38:37;101182.72;;;22.42;67.51
48862;BME280;34681;49.188;-0.374;2022-08-18T05:41:09;101187.22;;;22.43;67.62
48862;BME280;34681;49.188;-0.374;2022-08-18T05:43:36;101189.59;;;22.53;67.17
48862;BME280;34681;49.188;-0.374;2022-08-18T05:46:04;101196.44;;;22.57;67.11
48862;BME280;34681;49.188;-0.374;2022-08-18T05:48:31;101204.16;;;22.62;67.11
48862;BME280;34681;49.188;-0.374;2022-08-18T05:50:57;101203.72;;;22.58;66.74
48862;BME280;34681;49.188;-0.374;2022-08-18T05:53:24;101209.97;;;22.60;66.86
48862;BME280;34681;49.188;-0.374;2022-08-18T05:56:10;101207.19;;;22.60;66.69
48862;BME280;34681;49.188;-0.374;2022-08-18T05:58:56;101208.47;;;22.71;66.59
48862;BME280;34681;49.188;-0.374;2022-08-18T06:01:45;101206.53;;;22.78;66.02
48862;BME280;34681;49.188;-0.374;2022-08-18T06:06:43;101205.25;;;22.94;65.64
48862;BME280;34681;49.188;-0.374;2022-08-18T06:09:20;101213.78;;;23.19;65.11
48862;BME280;34681;49.188;-0.374;2022-08-18T06:11:47;101216.34;;;23.27;65.15
48862;BME280;34681;49.188;-0.374;2022-08-18T06:14:12;101219.75;;;23.29;65.47
48862;BME280;34681;49.188;-0.374;2022-08-18T06:19:33;101229.63;;;23.38;64.62
48862;BME280;34681;49.188;-0.374;2022-08-18T06:30:18;101224.03;;;23.96;62.84
48862;BME280;34681;49.188;-0.374;2022-08-18T06:33:13;101237.69;;;24.49;61.46
48862;BME280;34681;49.188;-0.374;2022-08-18T06:35:47;101238.84;;;25.16;60.12
48862;BME280;34681;49.188;-0.374;2022-08-18T06:41:41;101239.69;;;26.39;56.94
48862;BME280;34681;49.188;-0.374;2022-08-18T06:52:27;101243.25;;;30.27;47.03
48862;BME280;34681;49.188;-0.374;2022-08-18T06:54:58;101253.13;;;31.15;44.71
48862;BME280;34681;49.188;-0.374;2022-08-18T07:00:27;101250.19;;;28.81;48.42
48862;BME280;34681;49.188;-0.374;2022-08-18T07:03:05;101245.91;;;28.78;48.83
48862;BME280;34681;49.188;-0.374;2022-08-18T07:05:33;101245.31;;;29.10;48.47
48862;BME280;34681;49.188;-0.374;2022-08-18T07:10:38;101257.06;;;30.50;45.65
48862;BME280;34681;49.188;-0.374;2022-08-18T07:13:15;101258.28;;;33.71;40.13
48862;BME280;34681;49.188;-0.374;2022-08-18T07:15:41;101260.38;;;35.85;35.94
48862;BME280;34681;49.188;-0.374;2022-08-18T07:18:11;101258.94;;;37.93;32.83
48862;BME280;34681;49.188;-0.374;2022-08-18T07:20:46;101254.34;;;39.46;30.15
48862;BME280;34681;49.188;-0.374;2022-08-18T07:23:38;101267.03;;;40.85;27.90
48862;BME280;34681;49.188;-0.374;2022-08-18T07:26:14;101264.97;;;41.84;26.55
48862;BME280;34681;49.188;-0.374;2022-08-18T07:28:41;101264.75;;;42.69;25.81
48862;BME280;34681;49.188;-0.374;2022-08-18T07:31:13;101261.22;;;42.84;24.98
48862;BME280;34681;49.188;-0.374;2022-08-18T07:33:41;101258.47;;;42.25;24.87
48862;BME280;34681;49.188;-0.374;2022-08-18T07:36:09;101254.38;;;40.68;26.86
48862;BME280;34681;49.188;-0.374;2022-08-18T07:38:54;101258.75;;;40.31;27.37
48862;BME280;34681;49.188;-0.374;2022-08-18T07:41:25;101252.09;;;40.05;27.64
48862;BME280;34681;49.188;-0.374;2022-08-18T07:47:03;101259.00;;;37.33;30.68
48862;BME280;34681;49.188;-0.374;2022-08-18T07:49:33;101255.66;;;38.00;30.33
48862;BME280;34681;49.188;-0.374;2022-08-18T07:52:02;101260.28;;;40.55;27.10
48862;BME280;34681;49.188;-0.374;2022-08-18T07:54:40;101254.69;;;42.33;24.53
48862;BME280;34681;49.188;-0.374;2022-08-18T07:57:13;101271.53;;;43.52;23.00
48862;BME280;34681;49.188;-0.374;2022-08-18T08:07:31;101264.97;;;36.67;31.41
48862;BME280;34681;49.188;-0.374;2022-08-18T08:10:02;101268.41;;;35.54;33.04
48862;BME280;34681;49.188;-0.374;2022-08-18T08:12:35;101264.81;;;33.71;35.47
48862;BME280;34681;49.188;-0.374;2022-08-18T08:20:24;101265.16;;;32.63;37.81
48862;BME280;34681;49.188;-0.374;2022-08-18T08:23:05;101264.88;;;32.54;38.48
48862;BME280;34681;49.188;-0.374;2022-08-18T08:31:10;101266.75;;;32.23;38.95
48862;BME280;34681;49.188;-0.374;2022-08-18T08:33:57;101271.47;;;31.50;40.08
48862;BME280;34681;49.188;-0.374;2022-08-18T08:36:35;101271.50;;;31.18;40.82
48862;BME280;34681;49.188;-0.374;2022-08-18T08:39:08;101267.69;;;31.29;40.48
48862;BME280;34681;49.188;-0.374;2022-08-18T08:41:49;101263.25;;;31.96;39.21
48862;BME280;34681;49.188;-0.374;2022-08-18T08:44:32;101274.81;;;30.72;41.17
48862;BME280;34681;49.188;-0.374;2022-08-18T08:50:01;101281.34;;;30.51;42.09
48862;BME280;34681;49.188;-0.374;2022-08-18T08:52:37;101281.81;;;33.76;35.54
48862;BME280;34681;49.188;-0.374;2022-08-18T08:55:20;101274.69;;;36.98;31.20
48862;BME280;34681;49.188;-0.374;2022-08-18T08:57:54;101271.25;;;38.44;29.16
48862;BME280;34681;49.188;-0.374;2022-08-18T09:00:22;101269.69;;;36.34;31.28
48862;BME280;34681;49.188;-0.374;2022-08-18T09:11:43;101266.09;;;31.96;38.87
